Lorton Lick, West Virginia
Current Conditions -  °F | °C
As of 1:52 PM on Friday 31 Oct 2014 (Local Time) from KBLF Reporting Station
Light Rain Light Rain  
Wind Chill: 42°   Ceiling: 2000
Heat Index: 44°   Visibility: 9mi
Dew Point: 37°   Wind: 5mph
Humidity: 76%   Direction: 270°W
Pressure: 29.86"   Gusts: NA
Location:  37.2994°N, 81.226°W
Report Text: KBLF 311752Z AUTO 27004KT 9SM -RA OVC020 07/03 A2986 RMK AO2 SLP113 P0001 60001 T00670028 10078 20044 58021
Loading
Personal Weather Stations






























Interactive Weather Map
Tropical Storm Tracking
New forecast layout! Learn more

10-Day Weather Forecast

Advertisements
Track Severe Weather on mobile